Akra, North Dakota
Current Conditions -  °F | °C
As of 7:35 PM on Thursday 27 Nov 2014 (Local Time) from K2C8 Reporting Station
Haze Haze  
Wind Chill: -12°   Ceiling: 500
Heat Index:   Visibility: 3mi
Dew Point:   Wind: 13mph
Humidity: 78%   Direction: 180°S
Pressure: 30.19"   Gusts: NA
Location:  48.8218°N, 97.697°W
Report Text: K2C8 280135Z AUTO 18011KT 3SM HZ BKN005 M15/M18 A3019 RMK AO2
Loading
Personal Weather Stations






























Interactive Weather Map New forecast layout! Learn more

10-Day Weather Forecast

Advertisements
Track Severe Weather on mobile